Terminal Aerodrome Forecast
Issued by NWS Charleston, WV

Current Version | Previous Version | Graphics & Text | Print | Product List | Glossary On
Versions: 1 2 3 4 5 6 7 8 9 10 11 12 13 14 15 16 17 18 19 20 21 22 23 24 25 26 27 28
000
FTUS41 KRLX 290554
TAFEKN
TAF
KEKN 290554Z 2906/3006 00000KT P6SM FEW070
     FM290800 00000KT 2SM BR SCT001
     FM291100 VRB03KT 4SM BR BKN100
     FM291500 VRB03KT P6SM BKN035 BKN080
     FM291700 18004KT 5SM SHRA VCTS BKN035CB
     FM300200 VRB03KT 6SM BR SCT035 BKN080=

USA.gov is the U.S. government's official web portal to all federal, state and local government web resources and services.